createdAt,value
2018-06-04T00:02:17.411Z,4.83
2018-06-04T00:04:48.037Z,4.90
2018-06-04T00:07:27.058Z,5.07
2018-06-04T00:09:58.400Z,5.27
2018-06-04T00:12:29.442Z,5.00
2018-06-04T00:15:13.182Z,5.27
2018-06-04T00:17:44.220Z,5.27
2018-06-04T00:20:14.256Z,5.03
2018-06-04T00:23:03.941Z,4.83
2018-06-04T00:25:34.040Z,4.60
2018-06-04T00:28:04.331Z,5.17
2018-06-04T00:55:09.604Z,4.93
2018-06-04T01:08:34.195Z,5.60
2018-06-04T01:11:10.103Z,5.20
2018-06-04T01:13:42.730Z,5.10
2018-06-04T01:16:29.373Z,5.53
2018-06-04T01:22:05.266Z,5.20
2018-06-04T01:24:36.050Z,5.63
2018-06-04T01:30:07.972Z,5.30
2018-06-04T01:35:36.475Z,5.27
2018-06-04T01:38:07.516Z,5.43
2018-06-04T01:40:38.462Z,6.17
2018-06-04T01:46:07.543Z,5.20
2018-06-04T01:48:37.671Z,5.67
2018-06-04T01:55:09.600Z,5.40
2018-06-04T01:57:39.674Z,6.00
2018-06-04T02:00:09.936Z,5.27
2018-06-04T02:02:40.372Z,5.70
2018-06-04T02:05:33.340Z,5.30
2018-06-04T02:11:07.055Z,5.20
2018-06-04T02:13:38.344Z,5.70
2018-06-04T02:16:08.597Z,5.70
2018-06-04T02:18:39.042Z,5.60
2018-06-04T02:21:09.023Z,5.67
2018-06-04T02:23:41.237Z,5.70
2018-06-04T02:26:12.312Z,5.27
2018-06-04T02:28:42.558Z,5.97
2018-06-04T02:33:35.524Z,6.20
2018-06-04T02:39:44.287Z,5.43
2018-06-04T02:42:21.667Z,6.33
2018-06-04T02:44:51.788Z,6.23
2018-06-04T02:47:23.763Z,6.47
2018-06-04T02:50:10.559Z,5.97
2018-06-04T02:52:40.989Z,6.17
2018-06-04T02:55:11.958Z,6.67
2018-06-04T02:57:44.753Z,6.10
2018-06-04T03:00:15.258Z,5.60
2018-06-04T03:02:46.493Z,5.57
2018-06-04T03:08:21.281Z,6.33
2018-06-04T03:10:51.747Z,6.30
2018-06-04T03:13:21.657Z,6.00
2018-06-04T03:15:51.423Z,6.13
2018-06-04T03:18:30.519Z,5.70
2018-06-04T03:21:01.365Z,6.10
2018-06-04T03:23:35.680Z,5.90
2018-06-04T03:26:14.374Z,6.40
2018-06-04T03:41:09.368Z,6.23
2018-06-04T03:43:39.618Z,6.17
2018-06-04T03:46:11.113Z,6.57
2018-06-04T03:51:34.416Z,6.30
2018-06-04T03:54:04.590Z,6.37
2018-06-04T03:56:34.397Z,6.47
2018-06-04T03:59:04.949Z,5.77
2018-06-04T04:01:35.862Z,6.23
2018-06-04T04:04:05.991Z,7.17
2018-06-04T04:06:36.189Z,6.37
2018-06-04T04:09:09.000Z,6.37
2018-06-04T04:11:38.988Z,5.90
2018-06-04T04:14:08.918Z,6.13
2018-06-04T04:16:40.421Z,6.87
2018-06-04T04:19:12.759Z,5.67
2018-06-04T04:21:42.980Z,6.33
2018-06-04T04:24:12.850Z,6.13
2018-06-04T04:26:43.380Z,5.93
2018-06-04T04:29:13.732Z,6.70
2018-06-04T04:31:45.735Z,6.70
2018-06-04T04:34:15.512Z,7.17
2018-06-04T04:36:52.475Z,6.67
2018-06-04T04:39:23.033Z,6.47
2018-06-04T04:41:52.756Z,5.77
2018-06-04T04:44:22.801Z,6.37
2018-06-04T04:46:52.495Z,6.90
2018-06-04T04:49:22.336Z,7.57
2018-06-04T04:51:53.712Z,6.40
2018-06-04T04:54:23.435Z,5.90
2018-06-04T04:56:53.605Z,6.00
2018-06-04T04:59:24.780Z,5.50
2018-06-04T05:01:55.070Z,6.03
2018-06-04T05:04:24.947Z,5.90
2018-06-04T05:06:56.976Z,5.80
2018-06-04T05:09:26.935Z,5.43
2018-06-04T05:11:56.690Z,5.90
2018-06-04T05:14:26.869Z,6.50
2018-06-04T05:16:57.764Z,5.43
2018-06-04T05:19:27.983Z,6.40
2018-06-04T05:21:57.694Z,6.13
2018-06-04T05:24:28.085Z,6.53
2018-06-04T05:26:57.761Z,5.53
2018-06-04T05:29:28.154Z,5.83
2018-06-04T05:31:57.972Z,5.80
2018-06-04T05:34:27.940Z,5.50
2018-06-04T05:36:57.807Z,5.57
2018-06-04T05:39:28.239Z,6.10
2018-06-04T05:41:57.962Z,5.60
2018-06-04T05:44:29.092Z,5.20
2018-06-04T05:46:58.804Z,5.30
2018-06-04T05:49:28.632Z,5.83
2018-06-04T05:51:59.031Z,5.90
2018-06-04T05:54:28.953Z,6.17
2018-06-04T05:57:03.168Z,7.23
2018-06-04T05:59:33.347Z,7.87
2018-06-04T06:02:03.276Z,7.10
2018-06-04T06:04:33.909Z,6.63
2018-06-04T06:07:04.283Z,7.17
2018-06-04T06:09:41.744Z,7.77
2018-06-04T06:12:16.124Z,7.83
2018-06-04T06:14:45.901Z,7.70
2018-06-04T06:17:15.998Z,8.10
2018-06-04T06:19:45.850Z,7.97
2018-06-04T06:22:15.775Z,7.37
2018-06-04T06:24:47.881Z,6.93
2018-06-04T06:27:17.696Z,7.10
2018-06-04T06:29:47.470Z,7.40
2018-06-04T06:32:17.198Z,7.23
2018-06-04T06:34:53.724Z,7.20
2018-06-04T06:37:23.507Z,6.60
2018-06-04T06:39:53.304Z,6.43
2018-06-04T06:42:23.162Z,6.53
2018-06-04T06:44:54.390Z,6.23
2018-06-04T06:47:24.257Z,6.77
2018-06-04T06:49:54.240Z,6.33
2018-06-04T06:52:24.085Z,7.73
2018-06-04T06:54:54.105Z,6.47
2018-06-04T06:57:23.927Z,6.73
2018-06-04T06:59:54.021Z,7.40
2018-06-04T07:02:23.820Z,7.10
2018-06-04T07:04:54.063Z,6.60
2018-06-04T07:07:24.547Z,8.67
2018-06-04T07:09:54.465Z,7.17
2018-06-04T07:12:24.328Z,7.70
2018-06-04T07:14:54.244Z,7.00
2018-06-04T07:17:32.248Z,6.63
2018-06-04T07:20:14.118Z,7.27
2018-06-04T07:22:45.117Z,6.80
2018-06-04T07:25:17.975Z,6.43
2018-06-04T07:27:50.281Z,6.17
2018-06-04T07:30:20.263Z,6.80
2018-06-04T07:32:50.780Z,6.40
2018-06-04T07:35:21.207Z,6.07
2018-06-04T07:37:51.425Z,6.20
2018-06-04T07:40:21.357Z,6.40
2018-06-04T07:42:51.351Z,6.27
2018-06-04T07:45:21.714Z,5.83
2018-06-04T07:47:51.492Z,6.27
2018-06-04T07:50:26.741Z,5.60
2018-06-04T07:52:57.040Z,6.03
2018-06-04T07:55:27.170Z,6.17
2018-06-04T07:57:57.012Z,6.43
2018-06-04T08:00:26.984Z,5.90
2018-06-04T08:02:56.933Z,5.57
2018-06-04T08:05:27.061Z,5.23
2018-06-04T08:07:56.977Z,5.60
2018-06-04T08:10:26.852Z,5.80
2018-06-04T08:12:56.661Z,5.87
2018-06-04T08:15:26.706Z,8.40
2018-06-04T08:17:56.855Z,5.33
2018-06-04T08:20:44.875Z,5.07
2018-06-04T08:23:15.425Z,4.93
2018-06-04T08:25:50.200Z,4.80
2018-06-04T08:30:15.136Z,5.17
2018-06-04T08:32:46.535Z,4.60
2018-06-04T08:35:18.466Z,4.43
2018-06-04T08:40:46.527Z,5.13
2018-06-04T08:44:29.466Z,4.90
2018-06-04T08:47:00.353Z,4.60
2018-06-04T08:49:31.469Z,5.67
2018-06-04T08:52:03.656Z,4.40
2018-06-04T08:54:33.737Z,4.37
2018-06-04T08:57:04.616Z,4.40
2018-06-04T08:59:35.844Z,4.30
2018-06-04T09:05:03.022Z,4.00
2018-06-04T09:07:34.128Z,4.37
2018-06-04T09:10:06.288Z,4.40
2018-06-04T09:12:37.136Z,4.00
2018-06-04T09:15:08.090Z,4.03
2018-06-04T09:17:38.117Z,4.30
2018-06-04T09:20:13.064Z,3.70
2018-06-04T09:22:43.205Z,4.00
2018-06-04T09:25:25.658Z,4.03
2018-06-04T09:27:56.186Z,3.93
2018-06-04T09:30:32.264Z,3.87
2018-06-04T09:36:09.417Z,4.20
2018-06-04T09:38:41.043Z,3.77
2018-06-04T09:41:11.799Z,3.80
2018-06-04T09:43:41.955Z,3.73
2018-06-04T09:46:12.069Z,3.90
2018-06-04T09:48:43.681Z,3.90
2018-06-04T09:51:13.699Z,4.33
2018-06-04T09:53:44.220Z,4.03
2018-06-04T09:56:19.579Z,4.23
2018-06-04T09:58:49.554Z,3.50
2018-06-04T10:01:19.911Z,3.70
2018-06-04T10:03:49.989Z,3.90
2018-06-04T10:06:19.914Z,3.60
2018-06-04T10:08:49.755Z,3.73
2018-06-04T10:11:21.593Z,4.00
2018-06-04T10:13:51.525Z,3.30
2018-06-04T10:16:21.338Z,3.53
2018-06-04T10:18:51.332Z,3.73
2018-06-04T10:21:21.455Z,3.23
2018-06-04T10:23:51.244Z,3.30
2018-06-04T10:26:21.303Z,3.60
2018-06-04T10:28:51.180Z,3.40
2018-06-04T10:31:21.169Z,3.20
2018-06-04T10:33:50.980Z,3.20
2018-06-04T10:36:21.397Z,3.10
2018-06-04T10:38:51.294Z,3.10
2018-06-04T10:41:21.143Z,2.80
2018-06-04T10:43:53.451Z,2.73
2018-06-04T10:46:25.695Z,2.80
2018-06-04T10:49:00.678Z,2.57
2018-06-04T10:51:30.495Z,2.70
2018-06-04T10:54:05.562Z,3.40
2018-06-04T10:56:35.530Z,3.30
2018-06-04T10:59:05.318Z,3.63
2018-06-04T11:01:35.126Z,3.57
2018-06-04T11:04:06.187Z,3.20
2018-06-04T11:06:35.987Z,3.10
2018-06-04T11:11:19.428Z,2.50
2018-06-04T11:13:49.537Z,2.80
2018-06-04T11:16:20.840Z,2.80
2018-06-04T11:18:57.359Z,2.60
2018-06-04T11:21:27.248Z,2.70
2018-06-04T11:23:57.299Z,2.97
2018-06-04T11:26:27.179Z,2.70
2018-06-04T11:28:58.831Z,2.70
2018-06-04T11:31:28.950Z,2.60
2018-06-04T11:34:14.682Z,2.80
2018-06-04T11:36:44.516Z,2.80
2018-06-04T11:39:15.022Z,2.90
2018-06-04T11:41:46.057Z,2.63
2018-06-04T11:44:24.483Z,2.90
2018-06-04T11:46:54.615Z,3.13
2018-06-04T11:49:25.192Z,2.60
2018-06-04T11:51:55.240Z,2.60
2018-06-04T11:54:26.180Z,2.67
2018-06-04T11:56:58.442Z,2.97
2018-06-04T11:59:56.435Z,3.00
2018-06-04T12:06:23.092Z,2.67
2018-06-04T12:08:53.527Z,2.50
2018-06-04T12:11:25.012Z,2.80
2018-06-04T12:13:55.303Z,2.77
2018-06-04T12:16:25.533Z,2.90
2018-06-04T12:18:55.664Z,2.80
2018-06-04T12:21:26.233Z,2.60
2018-06-04T12:23:56.410Z,2.77
2018-06-04T12:26:29.089Z,3.10
2018-06-04T12:31:57.490Z,2.50
2018-06-04T12:34:36.906Z,2.80
2018-06-04T12:37:10.853Z,3.00
2018-06-04T12:39:42.739Z,2.80
2018-06-04T12:42:18.735Z,2.90
2018-06-04T12:44:48.640Z,2.90
2018-06-04T12:47:20.071Z,3.03
2018-06-04T12:49:49.895Z,3.27
2018-06-04T12:52:19.724Z,2.73
2018-06-04T12:54:54.809Z,2.70
2018-06-04T12:57:29.421Z,3.00
2018-06-04T12:59:59.299Z,2.60
2018-06-04T13:02:40.367Z,2.97
2018-06-04T13:05:12.307Z,2.90
2018-06-04T13:07:42.331Z,3.23
2018-06-04T13:10:12.367Z,2.90
2018-06-04T13:12:45.836Z,2.97
2018-06-04T13:15:16.094Z,3.00
2018-06-04T13:17:47.309Z,3.03
2018-06-04T13:20:17.468Z,2.80
2018-06-04T13:22:51.917Z,2.90
2018-06-04T13:28:01.169Z,2.67
2018-06-04T13:30:31.315Z,3.10
2018-06-04T13:33:01.430Z,2.90
2018-06-04T13:35:32.933Z,2.90
2018-06-04T13:38:04.064Z,3.37
2018-06-04T13:40:37.316Z,2.60
2018-06-04T13:43:08.541Z,2.80
2018-06-04T13:45:44.794Z,2.83
2018-06-04T13:48:15.682Z,2.80
2018-06-04T13:50:45.640Z,3.37
2018-06-04T13:53:17.078Z,4.17
2018-06-04T13:55:47.885Z,4.00
2018-06-04T13:58:17.720Z,3.13
2018-06-04T14:00:48.437Z,2.93
2018-06-04T14:03:18.373Z,2.77
2018-06-04T14:05:48.481Z,3.10
2018-06-04T14:08:33.278Z,2.67
2018-06-04T14:11:03.132Z,3.07
2018-06-04T14:13:33.596Z,3.00
2018-06-04T14:16:03.512Z,2.57
2018-06-04T14:18:36.525Z,3.20
2018-06-04T14:21:12.953Z,2.97
2018-06-04T14:23:43.408Z,2.67
2018-06-04T14:26:13.616Z,2.87
2018-06-04T14:31:40.795Z,3.10
2018-06-04T14:34:13.666Z,3.30
2018-06-04T14:36:46.855Z,3.10
2018-06-04T14:39:17.339Z,3.00
2018-06-04T14:41:51.102Z,3.00
2018-06-04T14:44:21.216Z,3.30
2018-06-04T14:46:53.064Z,2.67
2018-06-04T14:49:25.619Z,3.53
2018-06-04T14:51:55.762Z,3.30
2018-06-04T14:54:26.409Z,3.10
2018-06-04T14:56:58.256Z,3.27
2018-06-04T14:59:35.052Z,3.20
2018-06-04T15:02:05.576Z,3.10
2018-06-04T15:05:02.220Z,3.27
2018-06-04T15:07:34.390Z,3.87
2018-06-04T15:11:09.284Z,4.93
2018-06-04T15:13:40.370Z,3.20
2018-06-04T15:16:12.445Z,3.83
2018-06-04T15:18:44.122Z,3.10
2018-06-04T15:21:16.434Z,3.20
2018-06-04T15:23:48.224Z,3.10
2018-06-04T15:26:19.380Z,3.30
2018-06-04T15:28:52.345Z,3.30
2018-06-04T15:31:23.803Z,2.73
2018-06-04T15:33:57.173Z,3.03
2018-06-04T15:36:29.057Z,3.67
2018-06-04T15:39:10.109Z,2.90
2018-06-04T15:41:41.694Z,3.13
2018-06-04T15:44:26.998Z,3.23
2018-06-04T15:47:05.431Z,3.60
2018-06-04T15:49:37.086Z,3.47
2018-06-04T15:52:18.543Z,3.43
2018-06-04T15:54:48.955Z,3.70
2018-06-04T15:57:19.293Z,3.70
2018-06-04T15:59:54.082Z,3.20
2018-06-04T16:02:28.130Z,3.20
2018-06-04T16:04:59.624Z,3.47
2018-06-04T16:07:30.606Z,3.47
2018-06-04T16:10:04.092Z,3.60
2018-06-04T16:12:35.109Z,3.53
2018-06-04T16:15:08.340Z,3.00
2018-06-04T16:17:40.273Z,3.50
2018-06-04T16:20:11.181Z,3.37
2018-06-04T16:22:45.731Z,3.33
2018-06-04T16:25:17.561Z,3.47
2018-06-04T16:28:00.787Z,3.57
2018-06-04T16:30:32.378Z,4.70
2018-06-04T16:33:10.513Z,4.10
2018-06-04T16:35:41.751Z,3.80
2018-06-04T16:38:13.323Z,4.13
2018-06-04T16:40:48.899Z,4.30
2018-06-04T16:43:21.956Z,3.93
2018-06-04T16:48:59.765Z,3.67
2018-06-04T16:51:41.941Z,3.57
2018-06-04T16:54:17.254Z,3.73
2018-06-04T16:57:04.110Z,3.90
2018-06-04T16:59:38.230Z,3.90
2018-06-04T17:02:21.247Z,3.87
2018-06-04T17:05:00.190Z,4.13
2018-06-04T17:07:32.201Z,4.07
2018-06-04T17:10:08.426Z,4.17
2018-06-04T17:17:04.770Z,4.47
2018-06-04T17:19:39.810Z,4.27
2018-06-04T17:22:10.517Z,3.90
2018-06-04T17:24:42.309Z,4.30
2018-06-04T17:30:20.110Z,4.00
2018-06-04T17:32:57.088Z,4.30
2018-06-04T17:35:31.873Z,4.17
2018-06-04T17:38:03.512Z,4.37
2018-06-04T17:40:36.051Z,3.93
2018-06-04T17:46:03.196Z,5.17
2018-06-04T17:48:38.561Z,4.93
2018-06-04T17:51:11.246Z,4.23
2018-06-04T17:53:42.460Z,4.90
2018-06-04T17:56:13.506Z,4.87
2018-06-04T17:58:43.565Z,5.30
2018-06-04T18:01:14.628Z,4.93
2018-06-04T18:06:37.083Z,4.60
2018-06-04T18:09:14.928Z,4.83
2018-06-04T18:16:35.202Z,4.43
2018-06-04T18:19:22.973Z,4.30
2018-06-04T18:21:59.531Z,4.13
2018-06-04T18:24:33.344Z,4.40
2018-06-04T18:27:05.278Z,4.50
2018-06-04T18:32:36.262Z,4.33
2018-06-04T18:35:25.645Z,4.40
2018-06-04T18:38:09.870Z,4.60
2018-06-04T18:40:52.111Z,4.80
2018-06-04T18:43:27.102Z,5.10
2018-06-04T18:48:59.659Z,5.00
2018-06-04T18:51:42.249Z,4.60
2018-06-04T18:54:32.096Z,4.57
2018-06-04T19:06:46.492Z,4.77
2018-06-04T19:15:21.803Z,5.17
2018-06-04T19:17:55.327Z,4.60
2018-06-04T19:20:38.131Z,4.47
2018-06-04T19:23:19.053Z,5.10
2018-06-04T19:26:08.093Z,4.70
2018-06-04T19:28:48.204Z,5.03
2018-06-04T19:31:26.200Z,4.53
2018-06-04T19:34:01.672Z,4.90
2018-06-04T19:40:05.796Z,5.37
2018-06-04T19:42:53.416Z,4.77
2018-06-04T19:45:27.637Z,4.97
2018-06-04T19:48:04.583Z,5.00
2018-06-04T19:50:44.024Z,4.57
2018-06-04T19:53:27.450Z,4.57
2018-06-04T19:56:00.078Z,5.10
2018-06-04T19:58:35.286Z,4.90
2018-06-04T20:01:11.145Z,4.67
2018-06-04T20:03:46.686Z,5.43
2018-06-04T20:06:25.756Z,4.63
2018-06-04T20:09:00.936Z,5.10
2018-06-04T20:11:34.896Z,5.17
2018-06-04T20:14:05.685Z,4.90
2018-06-04T20:16:36.437Z,4.60
2018-06-04T20:19:21.934Z,5.30
2018-06-04T20:21:56.719Z,5.17
2018-06-04T20:24:28.781Z,5.20
2018-06-04T20:27:02.643Z,5.30
2018-06-04T20:29:34.877Z,5.43
2018-06-04T20:34:53.179Z,5.50
2018-06-04T20:37:25.258Z,4.97
2018-06-04T20:39:56.346Z,5.90
2018-06-04T20:42:28.046Z,6.17
2018-06-04T20:45:01.210Z,6.17
2018-06-04T20:47:38.899Z,5.27
2018-06-04T20:53:01.281Z,5.47
2018-06-04T20:55:36.381Z,4.67
2018-06-04T20:58:09.529Z,6.23
2018-06-04T21:01:58.243Z,5.13
2018-06-04T21:04:37.441Z,5.17
2018-06-04T21:07:10.408Z,4.90
2018-06-04T21:12:40.403Z,5.20
2018-06-04T21:15:21.472Z,5.87
2018-06-04T21:17:55.499Z,5.37
2018-06-04T21:26:27.910Z,5.40
2018-06-04T21:32:20.212Z,5.80
2018-06-04T22:14:42.281Z,5.80
2018-06-04T22:30:29.522Z,6.10
2018-06-04T22:33:40.799Z,6.30
2018-06-04T22:44:50.016Z,7.10
2018-06-04T22:47:28.263Z,5.87
2018-06-04T22:50:17.446Z,5.87
2018-06-04T22:52:55.645Z,5.73
2018-06-04T22:59:29.705Z,5.87
2018-06-04T23:04:46.003Z,6.33
2018-06-04T23:07:24.504Z,6.40
2018-06-04T23:09:56.509Z,6.37
2018-06-04T23:12:27.657Z,5.70
2018-06-04T23:14:59.584Z,6.60
2018-06-04T23:17:31.521Z,5.67
2018-06-04T23:20:02.490Z,5.90
2018-06-04T23:22:32.707Z,5.93
2018-06-04T23:25:04.620Z,5.87
2018-06-04T23:27:34.689Z,6.10
2018-06-04T23:30:04.940Z,6.50
2018-06-04T23:32:34.802Z,7.00
2018-06-04T23:35:06.324Z,5.50
2018-06-04T23:37:37.217Z,5.80
2018-06-04T23:40:07.747Z,6.03
2018-06-04T23:42:38.070Z,6.07
2018-06-04T23:45:09.778Z,6.40
2018-06-04T23:47:39.578Z,6.77
2018-06-04T23:50:09.856Z,6.80
2018-06-04T23:52:39.781Z,7.40
2018-06-04T23:55:10.572Z,6.83
2018-06-04T23:57:40.392Z,6.13
